createdAt,value
2022-11-24T00:00:16.236Z,99596.27
2022-11-24T00:07:03.703Z,99594.00
2022-11-24T00:13:27.908Z,99591.87
2022-11-24T00:19:52.504Z,99592.80
2022-11-24T00:26:17.133Z,99607.69
2022-11-24T00:32:41.950Z,99614.27
2022-11-24T00:39:06.548Z,99610.43
2022-11-24T00:45:31.029Z,99612.05
2022-11-24T00:51:58.467Z,99607.85
2022-11-24T00:58:22.951Z,99607.59
2022-11-24T01:04:47.592Z,99607.09
2022-11-24T01:11:12.081Z,99611.73
2022-11-24T01:17:36.576Z,99612.30
2022-11-24T01:24:01.250Z,99608.05
2022-11-24T01:30:25.550Z,99611.42
2022-11-24T01:36:50.054Z,99609.98
2022-11-24T01:43:18.070Z,99610.77
2022-11-24T01:49:45.146Z,99611.27
2022-11-24T01:56:12.216Z,99612.80
2022-11-24T02:02:36.873Z,99608.61
2022-11-24T02:09:01.885Z,99616.34
2022-11-24T02:15:26.490Z,99613.08
2022-11-24T02:21:51.140Z,99612.14
2022-11-24T02:28:15.716Z,99609.86
2022-11-24T02:34:40.231Z,99602.54
2022-11-24T02:41:04.850Z,99599.16
2022-11-24T02:47:29.854Z,99598.53
2022-11-24T02:53:54.381Z,99599.77
2022-11-24T03:00:19.021Z,99598.77
2022-11-24T03:06:43.672Z,99596.86
2022-11-24T03:13:11.308Z,99592.70
2022-11-24T03:19:35.821Z,99595.63
2022-11-24T03:26:00.340Z,99597.13
2022-11-24T03:32:24.851Z,99600.67
2022-11-24T03:38:49.414Z,99607.66
2022-11-24T03:45:44.233Z,99610.54
2022-11-24T03:52:00.650Z,99609.75
2022-11-24T03:58:28.415Z,99612.08
2022-11-24T04:04:53.050Z,99607.95
2022-11-24T04:11:17.734Z,99613.53
2022-11-24T04:17:42.267Z,99612.27
2022-11-24T04:24:07.172Z,99623.20
2022-11-24T04:30:31.715Z,99631.70
2022-11-24T04:36:56.202Z,99634.26
2022-11-24T04:43:20.849Z,99635.02
2022-11-24T04:49:45.450Z,99635.94
2022-11-24T04:56:10.051Z,99641.51
2022-11-24T05:02:34.768Z,99644.73
2022-11-24T05:09:02.179Z,99640.98
2022-11-24T05:15:26.705Z,99649.96
2022-11-24T05:21:51.227Z,99649.34
2022-11-24T05:28:14.451Z,99655.09
2022-11-24T05:34:38.919Z,99657.27
2022-11-24T05:41:03.422Z,99661.56
2022-11-24T05:47:27.944Z,99663.86
2022-11-24T05:53:52.313Z,99671.25
2022-11-24T06:00:16.663Z,99675.95
2022-11-24T06:06:41.184Z,99673.02
2022-11-24T06:13:05.653Z,99681.33
2022-11-24T06:19:29.953Z,99684.15
2022-11-24T06:25:54.271Z,99688.55
2022-11-24T06:32:18.614Z,99694.41
2022-11-24T06:38:41.628Z,99704.08
2022-11-24T06:45:09.042Z,99694.25
2022-11-24T06:51:33.835Z,99694.84
2022-11-24T06:57:58.227Z,99694.85
2022-11-24T07:04:22.563Z,99691.65
2022-11-24T07:10:47.067Z,99705.91
2022-11-24T07:17:19.168Z,99700.48
2022-11-24T07:23:43.673Z,99709.13
2022-11-24T07:30:08.101Z,99716.46
2022-11-24T07:36:32.493Z,99716.45
2022-11-24T07:42:56.843Z,99714.19
2022-11-24T07:49:21.214Z,99716.38
2022-11-24T07:55:45.848Z,99720.55
2022-11-24T08:02:10.274Z,99728.23
2022-11-24T08:08:34.760Z,99732.30
2022-11-24T08:14:59.189Z,99731.29
2022-11-24T08:21:23.748Z,99732.25
2022-11-24T08:27:48.308Z,99737.29
2022-11-24T08:34:12.658Z,99742.97
2022-11-24T08:40:37.050Z,99741.91
2022-11-24T08:47:01.371Z,99743.17
2022-11-24T08:53:25.800Z,99749.90
2022-11-24T08:59:50.291Z,99755.77
2022-11-24T09:06:14.816Z,99761.27
2022-11-24T09:12:39.214Z,99759.48
2022-11-24T09:19:03.586Z,99759.95
2022-11-24T09:25:27.914Z,99764.20
2022-11-24T09:31:52.366Z,99764.92
2022-11-24T09:38:16.738Z,99769.70
2022-11-24T09:44:46.640Z,99772.85
2022-11-24T09:51:17.171Z,99778.55
2022-11-24T09:57:41.548Z,99783.67
2022-11-24T10:04:15.151Z,99778.56
2022-11-24T10:10:51.276Z,99780.05
2022-11-24T10:17:24.745Z,99781.55
2022-11-24T10:24:07.041Z,99785.77
2022-11-24T10:30:31.377Z,99785.38
2022-11-24T10:36:55.790Z,99786.28
2022-11-24T10:43:20.241Z,99788.56
2022-11-24T10:49:44.599Z,99791.52
2022-11-24T10:56:08.981Z,99799.15
2022-11-24T11:02:33.661Z,99800.06
2022-11-24T11:09:16.597Z,99799.59
2022-11-24T11:15:41.022Z,99806.25
2022-11-24T11:22:08.453Z,99800.64
2022-11-24T11:28:32.872Z,99804.69
2022-11-24T11:34:59.966Z,99807.54
2022-11-24T11:41:24.278Z,99809.50
2022-11-24T11:47:48.662Z,99811.17
2022-11-24T11:54:16.864Z,99824.50
2022-11-24T12:00:41.313Z,99830.85
2022-11-24T12:07:26.863Z,99830.92
2022-11-24T12:14:03.060Z,99825.94
2022-11-24T12:20:27.577Z,99825.40
2022-11-24T12:27:04.320Z,99821.13
2022-11-24T12:33:47.529Z,99822.35
2022-11-24T12:40:17.925Z,99825.81
2022-11-24T12:46:51.596Z,99826.23
2022-11-24T12:53:25.529Z,99817.93
2022-11-24T13:00:02.082Z,99818.52
2022-11-24T13:06:28.132Z,99813.10
2022-11-24T13:12:52.482Z,99813.83
2022-11-24T13:19:33.956Z,99821.32
2022-11-24T13:26:15.741Z,99821.74
2022-11-24T13:32:42.848Z,99820.44
2022-11-24T13:39:21.216Z,99823.54
2022-11-24T13:45:48.483Z,99822.67
2022-11-24T13:52:12.894Z,99821.44
2022-11-24T13:58:42.992Z,99825.80
2022-11-24T14:05:22.652Z,99833.23
2022-11-24T14:11:53.776Z,99836.68
2022-11-24T14:18:21.206Z,99838.31
2022-11-24T14:24:45.805Z,99846.05
2022-11-24T14:31:13.596Z,99850.33
2022-11-24T14:37:38.092Z,99856.44
2022-11-24T14:44:11.303Z,99865.73
2022-11-24T14:50:35.633Z,99873.67
2022-11-24T14:57:12.133Z,99880.48
2022-11-24T15:03:42.196Z,99880.43
2022-11-24T15:10:06.612Z,99883.18
2022-11-24T15:16:36.983Z,99894.44
2022-11-24T15:23:16.601Z,99903.07
2022-11-24T15:29:40.989Z,99908.33
2022-11-24T15:36:05.383Z,99915.52
2022-11-24T15:42:29.735Z,99922.05
2022-11-24T15:48:54.081Z,99930.00
2022-11-24T15:55:18.629Z,99929.92
2022-11-24T16:01:42.969Z,99930.74
2022-11-24T16:08:07.329Z,99935.69
2022-11-24T16:14:31.700Z,99931.60
2022-11-24T16:20:46.163Z,99930.29
2022-11-24T16:27:10.476Z,99932.08
2022-11-24T16:33:35.107Z,99936.08
2022-11-24T16:39:59.589Z,99949.89
2022-11-24T16:46:23.967Z,99956.38
2022-11-24T16:52:41.501Z,99957.84
2022-11-24T16:59:05.864Z,99966.53
2022-11-24T17:05:30.499Z,99972.41
2022-11-24T17:11:57.494Z,99977.58
2022-11-24T17:18:25.632Z,99982.80
2022-11-24T17:24:40.036Z,99991.27
2022-11-24T17:31:05.037Z,99999.19
2022-11-24T17:37:29.320Z,99998.73
2022-11-24T17:43:53.799Z,100007.40
2022-11-24T17:50:22.442Z,100019.33
2022-11-24T17:56:49.883Z,100031.84
2022-11-24T18:03:14.289Z,100038.20
2022-11-24T18:09:18.760Z,100037.58
2022-11-24T18:15:43.279Z,100039.70
2022-11-24T18:22:07.781Z,100037.02
2022-11-24T18:28:32.184Z,100037.45
2022-11-24T18:34:56.478Z,100037.46
2022-11-24T18:41:11.889Z,100040.05
2022-11-24T18:47:21.468Z,100034.12
2022-11-24T18:53:45.780Z,100030.38
2022-11-24T19:00:10.132Z,100028.88
2022-11-24T19:06:33.922Z,100033.80
2022-11-24T19:12:52.667Z,100039.06
2022-11-24T19:19:17.048Z,100044.30
2022-11-24T19:25:41.576Z,100044.77
2022-11-24T19:32:06.026Z,100046.50
2022-11-24T19:38:29.677Z,100055.88
2022-11-24T19:44:56.698Z,100057.27
2022-11-24T19:51:21.498Z,100065.87
2022-11-24T19:57:45.918Z,100070.20
2022-11-24T20:04:10.208Z,100077.29
2022-11-24T20:10:31.393Z,100080.16
2022-11-24T20:16:53.458Z,100083.16
2022-11-24T20:23:17.936Z,100083.78
2022-11-24T20:29:46.583Z,100088.19
2022-11-24T20:36:11.457Z,100098.81
2022-11-24T20:42:35.846Z,100102.94
2022-11-24T20:49:00.141Z,100107.92
2022-11-24T20:55:17.029Z,100117.84
2022-11-24T21:01:43.985Z,100127.69
2022-11-24T21:08:08.487Z,100134.78
2022-11-24T21:14:35.323Z,100142.33
2022-11-24T21:21:00.004Z,100148.31
2022-11-24T21:27:24.523Z,100146.41
2022-11-24T21:33:48.860Z,100144.75
2022-11-24T21:40:04.440Z,100147.98
2022-11-24T21:46:28.792Z,100148.99
2022-11-24T21:52:53.142Z,100149.98
2022-11-24T21:59:17.526Z,100147.77
2022-11-24T22:05:41.976Z,100151.42
2022-11-24T22:12:06.314Z,100145.77
2022-11-24T22:18:30.695Z,100150.22
2022-11-24T22:24:55.026Z,100148.82
2022-11-24T22:31:19.456Z,100150.66
2022-11-24T22:37:43.936Z,100157.70
2022-11-24T22:44:08.355Z,100161.61
2022-11-24T22:50:32.633Z,100170.46
2022-11-24T22:56:56.580Z,100175.98
2022-11-24T23:03:21.130Z,100183.83
2022-11-24T23:09:45.611Z,100186.15
2022-11-24T23:16:10.206Z,100188.94
2022-11-24T23:22:34.750Z,100192.48
2022-11-24T23:28:59.136Z,100190.35
2022-11-24T23:35:23.454Z,100192.45
2022-11-24T23:41:47.779Z,100192.34
2022-11-24T23:48:12.153Z,100190.48
